createdAt,value
2019-01-11T00:00:12.299Z,100906.74
2019-01-11T00:05:16.463Z,100906.74
2019-01-11T00:10:20.597Z,100905.13
2019-01-11T00:15:24.781Z,100906.00
2019-01-11T00:20:28.915Z,100907.15
2019-01-11T00:25:35.155Z,100900.71
2019-01-11T00:30:39.298Z,100902.42
2019-01-11T00:35:43.412Z,100902.42
2019-01-11T00:40:47.523Z,100892.03
2019-01-11T00:45:51.637Z,100884.91
2019-01-11T00:50:55.768Z,100877.95
2019-01-11T00:55:59.945Z,100878.17
2019-01-11T01:01:04.257Z,100875.28
2019-01-11T01:06:08.446Z,100872.09
2019-01-11T01:11:12.936Z,100872.09
2019-01-11T01:16:17.033Z,100876.45
2019-01-11T01:21:21.125Z,100876.45
2019-01-11T01:26:25.327Z,100874.70
2019-01-11T01:31:29.420Z,100860.73
2019-01-11T01:36:33.535Z,100858.39
2019-01-11T01:41:37.839Z,100856.66
2019-01-11T01:46:41.954Z,100864.02
2019-01-11T01:51:46.088Z,100857.76
2019-01-11T01:56:50.242Z,100853.30
2019-01-11T02:01:54.412Z,100850.13
2019-01-11T02:06:58.502Z,100850.13
2019-01-11T02:12:02.715Z,100839.73
2019-01-11T02:17:06.834Z,100840.05
2019-01-11T02:27:13.866Z,100839.15
2019-01-11T02:32:18.057Z,100842.23
2019-01-11T02:37:22.160Z,100847.15
2019-01-11T02:42:26.362Z,100840.97
2019-01-11T02:47:30.501Z,100835.68
2019-01-11T02:52:35.601Z,100825.99
2019-01-11T02:57:39.981Z,100822.30
2019-01-11T03:02:44.249Z,100814.77
2019-01-11T03:07:48.944Z,100807.86
2019-01-11T03:12:53.075Z,100799.47
2019-01-11T03:17:57.125Z,100791.48
2019-01-11T03:23:01.166Z,100787.06
2019-01-11T03:28:05.360Z,100778.88
2019-01-11T03:33:09.432Z,100770.98
2019-01-11T03:38:13.651Z,100755.09
2019-01-11T03:43:17.788Z,100766.07
2019-01-11T03:48:21.840Z,100757.12
2019-01-11T03:53:25.981Z,100757.12
2019-01-11T03:58:30.095Z,100760.58
2019-01-11T04:03:34.278Z,100762.89
2019-01-11T04:08:38.848Z,100755.27
2019-01-11T04:13:42.978Z,100750.88
2019-01-11T04:18:55.831Z,100740.87
2019-01-11T04:23:59.958Z,100730.77
2019-01-11T04:29:04.055Z,100725.37
2019-01-11T04:34:08.138Z,100726.24
2019-01-11T04:39:12.228Z,100723.38
2019-01-11T04:44:16.518Z,100710.83
2019-01-11T04:49:20.573Z,100710.83
2019-01-11T04:54:24.611Z,100707.69
2019-01-11T04:59:28.732Z,100708.47
2019-01-11T05:04:32.893Z,100694.50
2019-01-11T05:09:37.077Z,100692.48
2019-01-11T05:14:41.125Z,100686.62
2019-01-11T05:19:45.239Z,100695.09
2019-01-11T05:24:49.299Z,100685.33
2019-01-11T05:29:53.493Z,100684.27
2019-01-11T05:34:57.544Z,100684.27
2019-01-11T05:40:02.517Z,100665.14
2019-01-11T05:45:07.201Z,100665.14
2019-01-11T05:50:13.751Z,100654.94
2019-01-11T05:55:31.637Z,100650.80
2019-01-11T06:00:35.769Z,100638.20
2019-01-11T06:05:39.846Z,100639.83
2019-01-11T06:10:43.985Z,100639.83
2019-01-11T06:15:48.180Z,100629.27
2019-01-11T06:20:52.548Z,100618.67
2019-01-11T06:25:56.761Z,100618.67
2019-01-11T06:31:00.905Z,100616.53
2019-01-11T06:36:05.038Z,100616.73
2019-01-11T06:41:09.161Z,100605.88
2019-01-11T06:46:13.291Z,100607.48
2019-01-11T06:51:17.499Z,100600.48
2019-01-11T06:56:21.522Z,100600.63
2019-01-11T07:01:25.658Z,100602.07
2019-01-11T07:06:29.800Z,100595.61
2019-01-11T07:11:33.918Z,100595.61
2019-01-11T07:16:38.057Z,100596.58
2019-01-11T07:21:42.257Z,100594.27
2019-01-11T07:26:46.295Z,100588.95
2019-01-11T07:31:50.399Z,100588.95
2019-01-11T07:36:56.225Z,100578.02
2019-01-11T07:42:00.431Z,100580.39
2019-01-11T07:47:04.625Z,100580.39
2019-01-11T07:52:08.757Z,100567.70
2019-01-11T07:57:14.115Z,100562.14
2019-01-11T08:02:18.941Z,100561.25
2019-01-11T08:07:23.041Z,100558.45
2019-01-11T08:12:27.147Z,100561.55
2019-01-11T08:17:31.253Z,100561.55
2019-01-11T08:22:40.891Z,100551.28
2019-01-11T08:27:45.225Z,100544.90
2019-01-11T08:32:50.469Z,100565.91
2019-01-11T08:37:54.592Z,100565.42
2019-01-11T08:42:58.671Z,100544.39
2019-01-11T08:48:02.790Z,100529.11
2019-01-11T08:53:07.071Z,100521.30
2019-01-11T08:58:11.230Z,100515.66
2019-01-11T09:03:15.421Z,100516.95
2019-01-11T09:08:19.962Z,100508.48
2019-01-11T09:13:24.176Z,100508.48
2019-01-11T09:18:42.454Z,100519.42
2019-01-11T09:23:46.818Z,100522.09
2019-01-11T09:28:51.177Z,100514.61
2019-01-11T09:33:55.677Z,100514.61
2019-01-11T09:39:00.703Z,100513.86
2019-01-11T09:44:04.991Z,100524.48
2019-01-11T09:49:09.073Z,100514.08
2019-01-11T09:54:13.835Z,100514.08
2019-01-11T09:59:18.401Z,100511.21
2019-01-11T10:04:27.204Z,100501.98
2019-01-11T10:09:31.236Z,100493.22
2019-01-11T10:14:35.307Z,100493.22
2019-01-11T10:19:39.380Z,100479.56
2019-01-11T10:24:43.438Z,100464.88
2019-01-11T10:29:47.586Z,100463.03
2019-01-11T10:34:51.691Z,100451.41
2019-01-11T10:39:55.853Z,100438.23
2019-01-11T10:45:00.803Z,100441.91
2019-01-11T10:50:06.671Z,100441.91
2019-01-11T10:55:11.929Z,100435.27
2019-01-11T11:00:21.899Z,100427.88
2019-01-11T11:05:26.200Z,100420.69
2019-01-11T11:10:30.299Z,100418.59
2019-01-11T11:15:34.399Z,100404.65
2019-01-11T11:20:38.565Z,100395.52
2019-01-11T11:25:42.678Z,100385.73
2019-01-11T11:30:50.914Z,100385.73
2019-01-11T11:35:52.720Z,100350.88
2019-01-11T11:40:56.830Z,100350.88
2019-01-11T11:46:00.875Z,100341.36
2019-01-11T11:51:08.122Z,100340.39
2019-01-11T11:56:12.233Z,100328.45
2019-01-11T12:01:16.618Z,100333.02
2019-01-11T12:06:20.750Z,100328.80
2019-01-11T12:11:25.178Z,100316.05
2019-01-11T12:16:29.433Z,100314.24
2019-01-11T12:21:34.300Z,100304.08
2019-01-11T12:26:38.843Z,100294.27
2019-01-11T12:31:43.055Z,100291.09
2019-01-11T12:36:47.117Z,100278.00
2019-01-11T12:41:51.343Z,100278.00
2019-01-11T12:46:55.622Z,100242.52
2019-01-11T12:51:59.668Z,100242.98
2019-01-11T12:57:03.834Z,100224.72
2019-01-11T13:02:08.270Z,100196.32
2019-01-11T13:07:12.475Z,100196.32
2019-01-11T13:12:16.658Z,100187.33
2019-01-11T13:17:20.778Z,100188.90
2019-01-11T13:22:25.069Z,100187.08
2019-01-11T13:27:29.160Z,100179.02
2019-01-11T13:32:33.360Z,100187.00
2019-01-11T13:37:37.571Z,100189.31
2019-01-11T13:42:41.753Z,100189.31
2019-01-11T13:47:46.089Z,100178.08
2019-01-11T13:52:50.217Z,100172.33
2019-01-11T13:57:54.402Z,100170.28
2019-01-11T14:02:58.640Z,100169.30
2019-01-11T14:08:02.775Z,100169.30
2019-01-11T14:13:07.081Z,100153.09
2019-01-11T14:18:15.092Z,100152.19
2019-01-11T14:23:19.460Z,100150.53
2019-01-11T14:28:23.537Z,100150.53
2019-01-11T14:33:27.717Z,100141.66
2019-01-11T14:38:31.784Z,100128.14
2019-01-11T14:43:35.811Z,100129.38
2019-01-11T14:48:39.918Z,100134.53
2019-01-11T14:53:43.977Z,100126.31
2019-01-11T14:58:48.112Z,100120.63
2019-01-11T15:03:52.331Z,100120.34
2019-01-11T15:08:56.380Z,100124.66
2019-01-11T15:14:00.405Z,100117.54
2019-01-11T15:19:04.522Z,100106.72
2019-01-11T15:24:08.690Z,100114.66
2019-01-11T15:29:12.832Z,100100.48
2019-01-11T15:34:16.943Z,100117.19
2019-01-11T15:39:21.096Z,100117.19
2019-01-11T15:44:25.130Z,100113.62
2019-01-11T15:49:29.158Z,100113.62
2019-01-11T15:54:33.262Z,100113.57
2019-01-11T16:00:00.393Z,100108.91
2019-01-11T16:05:04.727Z,100106.11
2019-01-11T16:10:16.545Z,100105.19
2019-01-11T16:15:34.477Z,100093.64
2019-01-11T16:20:38.529Z,100093.64
2019-01-11T16:25:42.620Z,100083.25
2019-01-11T16:30:46.762Z,100083.25
2019-01-11T16:35:50.863Z,100084.17
2019-01-11T16:40:54.987Z,100084.17
2019-01-11T16:45:59.092Z,100079.88
2019-01-11T16:51:03.202Z,100081.48
2019-01-11T16:56:07.379Z,100074.94
2019-01-11T17:01:11.607Z,100060.20
2019-01-11T17:06:15.763Z,100076.28
2019-01-11T17:11:19.965Z,100075.42
2019-01-11T17:16:24.063Z,100067.92
2019-01-11T17:21:28.269Z,100076.65
2019-01-11T17:26:32.441Z,100060.87
2019-01-11T17:31:36.550Z,100067.35
2019-01-11T17:36:40.583Z,100064.72
2019-01-11T17:41:44.780Z,100059.88
2019-01-11T17:46:48.806Z,100067.41
2019-01-11T17:51:52.931Z,100067.41
2019-01-11T17:56:56.978Z,100055.51
2019-01-11T18:02:01.030Z,100064.44
2019-01-11T18:07:05.283Z,100076.47
2019-01-11T18:12:09.499Z,100079.88
2019-01-11T18:17:13.732Z,100084.91
2019-01-11T18:22:17.836Z,100064.06
2019-01-11T18:27:21.977Z,100064.43
2019-01-11T18:32:26.097Z,100075.73
2019-01-11T18:37:30.143Z,100075.73
2019-01-11T18:42:35.397Z,100068.27
2019-01-11T18:47:39.531Z,100072.92
2019-01-11T18:52:43.710Z,100073.41
2019-01-11T18:57:48.004Z,100077.27
2019-01-11T19:02:52.136Z,100075.92
2019-01-11T19:07:56.313Z,100079.16
2019-01-11T19:13:00.434Z,100079.59
2019-01-11T19:18:04.714Z,100085.48
2019-01-11T19:23:08.838Z,100093.71
2019-01-11T19:28:13.018Z,100086.56
2019-01-11T19:33:17.111Z,100080.73
2019-01-11T19:38:22.359Z,100081.94
2019-01-11T19:43:26.625Z,100072.13
2019-01-11T19:48:30.758Z,100085.58
2019-01-11T19:53:34.999Z,100069.44
2019-01-11T19:58:39.108Z,100075.42
2019-01-11T20:03:43.317Z,100081.85
2019-01-11T20:08:47.477Z,100083.99
2019-01-11T20:13:51.686Z,100089.38
2019-01-11T20:18:55.936Z,100089.38
2019-01-11T20:23:59.989Z,100097.19
2019-01-11T20:29:04.202Z,100097.42
2019-01-11T20:34:08.405Z,100097.42
2019-01-11T20:39:12.524Z,100088.23
2019-01-11T20:44:16.585Z,100096.80
2019-01-11T20:49:20.655Z,100098.34
2019-01-11T20:54:24.674Z,100098.34
2019-01-11T20:59:28.701Z,100095.91
2019-01-11T21:04:32.864Z,100109.04
2019-01-11T21:09:36.891Z,100106.41
2019-01-11T21:14:41.010Z,100098.42
2019-01-11T21:19:45.108Z,100081.91
2019-01-11T21:24:49.622Z,100097.79
2019-01-11T21:29:53.738Z,100107.46
2019-01-11T21:34:57.782Z,100107.46
2019-01-11T21:40:01.812Z,100107.44
2019-01-11T21:45:07.291Z,100107.44
2019-01-11T21:50:15.365Z,100102.91
2019-01-11T21:55:19.672Z,100109.15
2019-01-11T22:00:26.620Z,100099.37
2019-01-11T22:05:30.817Z,100087.47
2019-01-11T22:10:34.934Z,100086.66
2019-01-11T22:15:39.160Z,100097.11
2019-01-11T22:20:43.292Z,100088.92
2019-01-11T22:25:47.393Z,100099.88
2019-01-11T22:30:51.604Z,100102.57
2019-01-11T22:35:55.626Z,100101.34
2019-01-11T22:40:59.692Z,100104.14
2019-01-11T22:46:03.827Z,100105.44
2019-01-11T22:51:07.849Z,100111.59
2019-01-11T22:56:11.885Z,100111.59
2019-01-11T23:01:30.839Z,100105.55
2019-01-11T23:07:23.994Z,100093.64
2019-01-11T23:12:41.376Z,100101.25
2019-01-11T23:17:49.343Z,100105.86
2019-01-11T23:22:53.578Z,100108.06
2019-01-11T23:27:57.677Z,100112.22
2019-01-11T23:33:01.754Z,100098.65
2019-01-11T23:38:05.894Z,100101.83
2019-01-11T23:43:09.990Z,100124.69
2019-01-11T23:48:14.024Z,100115.39
2019-01-11T23:53:18.155Z,100108.66
2019-01-11T23:58:22.275Z,100113.67
